Martineau, Arthur
United StatesManBorn 19672005 – 2026Runner id 47567
Events
122
121 race dates
Best pace
12.922
km/h · 2015
Best finish
1st
of 65 · 2012
Distance raced
10,417
km · splits not double-counted
Pace over time
km/h · higher is faster
Pace over time: 122 races from 2005 to 2026, ranging from 2.08 to 14.11 kilometres per hour, where higher is faster. A second, age-graded series is drawn above it; the gap between the two is the age credit.
- Actual pace
- Age-graded pace
Results
| Date | Event | Distance | Result | Pace km/h | Placing |
|---|---|---|---|---|---|
| 2005-08-20 | 50km | 7:46:42 h | 6.428 | 5/6 | |
| 2005-09-19 | Cle Elum Ridge 50kUnited States | 50km | 7:10:14 h | 6.973 | 39/69 |
| 2005-10-01 | Baker Lake 50K Ultra Trail RunUnited States | 50km | 6:32:10 h | 7.650 | 60/101 |
| 2006-01-14 | Bridle Trails Winter Running FestivalUnited States | 50km | 6:14:57 h | 8.001 | 16/18 |
| 2006-01-21 | Capitol Peak MegaFatAssUnited States | 34mi | 7:27:55 h | 7.330 | 9/17 |
| 2006-02-04 | Pigtails Run 50KUnited States | 50km | 5:44:00 h | 8.721 | 9/12 |
| 2006-02-11 | Orcas Island 50kUnited States | 50km | 8:28:55 h | 5.895 | 23/23 |
| 2006-03-18 | Chuckanut 50KUnited States | 50km | 6:47:59 h | 7.353 | 187/242 |
| 2006-03-25 | 50km | 6:04:04 h | 8.240 | 36/48 | |
| 2006-04-15 | Capitol Peak 50 MilerUnited States | 50mi | 12:37:16 h | 6.376 | 24/26 |
| 2006-04-23 | 50mi | 9:28:04 h | 8.499 | 33/48 | |
| 2006-05-20 | Watershed Preserve 12 Hr Trail RaceUnited States | 12h | 95.772 km | 7.981 | 6/30 |
| 2006-07-29 | 50mi | 10:51:46 h | 7.408 | 79/124 | |
| 2006-08-26 | 100mi | 30:22:00 h | 5.300 | 28/43 | |
| 2006-09-16 | 50km | 6:55:22 h | 7.223 | 31/70 | |
| 2006-10-07 | Baker Lake 50K Ultra Trail RunUnited States | 50km | 6:09:53 h | 8.111 | 58/113 |
| 2006-11-11 | Ron Herzog 50KUnited States | 50km | 6:42:54 h | 7.446 | 24/32 |
| 2007-01-13 | Bridle Trails Winter Running FestivalUnited States | 50km | 5:42:41 h | 8.754 | 36/44 |
| 2007-03-17 | 24h | 49.889 km | 2.079 | 39/41 | |
| 2007-03-17 | Chuckanut 50KUnited States | 50km | 5:54:27 h | 8.464 | 107/260 |
| 2007-04-22 | 50mi | 8:31:55 h | 9.431 | 18/54 | |
| 2007-04-28 | Capitol Peak 55KUnited States | 55km | 7:14:04 h | 7.603 | 16/30 |
| 2007-05-19 | Watershed Preserve 12 Hr Trail RaceUnited States | 12h | 104.430 km | 8.703 | 7/56 |
| 2007-07-28 | 50mi | 10:18:51 h | 7.802 | 67/144 | |
| 2007-08-25 | 100mi | 25:05:00 h | 6.416 | 14/67 | |
| 2007-09-08 | 100mi | 31:51:51 h | 5.051 | 6/14 | |
| 2007-10-06 | Baker Lake 50K Ultra Trail RunUnited States | 50km | 6:57:59 h | 7.177 | 48/77 |
| 2007-12-22 | 50km | 4:44:28 h | 10.546 | 16/42 | |
| 2008-01-12 | Bridle Trails Winter Running FestivalUnited States | 50km | 5:33:12 h | 9.004 | 20/44 |
| 2008-01-26 | Pigtails Run 50KUnited States | 50km | 5:44:00 h | 8.721 | 35/49 |
| 2008-02-03 | Lord Hill Trail RunUnited States | 50km | 5:46:00 h | 8.671 | 11/30 |
| 2008-02-16 | 50km | 6:42:50 h | 7.447 | 26/59 | |
| 2008-03-15 | Chuckanut 50KUnited States | 50km | 5:42:44 h | 8.753 | 87/294 |
| 2008-04-13 | 50mi | 8:01:41 h | 10.023 | 12/50 | |
| 2008-04-26 | 50mi | 10:16:00 h | 7.838 | 17/37 | |
| 2008-05-17 | Watershed Preserve 12 Hr Trail RaceUnited States | 12h | 100.954 km | 8.413 | 4/53 |
| 2008-06-14 | Lake Youngs UltraUnited States | 28.8mi | 3:49:55 h | 12.095 | 9/95 |
| 2008-07-26 | 50mi | 9:38:39 h | 8.344 | 68/202 | |
| 2008-08-23 | 100mi | 23:05:05 h | 6.971 | 7/77 | |
| 2008-11-01 | Ron Herzog 50KUnited States | 50km | 4:25:00 h | 11.321 | 3/30 |
| 2009-01-10 | Bridle Trails Winter Running FestivalUnited States | 50km | 4:42:07 h | 10.634 | 9/50 |
| 2009-02-07 | Orcas Island 50kUnited States | 50km | 6:19:15 h | 7.910 | 31/106 |
| 2009-03-21 | Chuckanut 50KUnited States | 50km | 5:28:39 h | 9.128 | 72/270 |
| 2009-04-25 | 50mi | 9:55:40 h | 8.105 | 22/43 | |
| 2009-05-16 | Watershed Preserve 12 Hr Trail RaceUnited States | 12h | 105.589 km | 8.799 | 6/66 |
| 2009-06-06 | Blanchard Mountain Trail UltraUnited States | 50km | 5:44:00 h | 8.721 | 1/17 |
| 2009-06-13 | Lake Youngs UltraUnited States | 28.8mi | 3:56:52 h | 11.741 | 10/58 |
| 2009-07-11 | 50km | 5:16:48 h | 9.470 | 6/36 | |
| 2009-07-25 | 50mi | 8:59:32 h | 8.949 | 39/166 | |
| 2009-08-29 | 100mi | 22:44:59 h | 7.074 | 13/96 | |
| 2009-10-03 | Baker Lake 50K Ultra Trail RunUnited States | 50km | 5:37:00 h | 8.902 | 9/65 |
| 2009-11-07 | Ron Herzog 50KUnited States | 50km | 4:43:25 h | 10.585 | 9/31 |
| 2010-01-09 | Bridle Trails Winter Running FestivalUnited States | 50km | 4:41:42 h | 10.650 | 14/70 |
| 2010-01-16 | Capitol Peak MegaFatAssUnited States | 34mi | 5:12:00 h | 10.523 | 14/38 |
| 2010-03-20 | 24h | 160.934 km | 6.706 | 10/73 | |
| 2010-04-11 | 50mi | 7:26:38 h | 10.810 | 7/46 | |
| 2010-04-25 | 50mi | 8:50:20 h | 9.104 | 21/88 | |
| 2010-05-15 | 12h | 92.295 km | 7.691 | 19/80 | |
| 2010-06-05 | 50mi | 7:39:43 h | 10.502 | 4/40 | |
| 2010-07-31 | 50mi | 9:31:50 h | 8.443 | 57/194 | |
| 2010-08-28 | 100mi | 23:03:15 h | 6.981 | 16/78 | |
| 2010-10-02 | Baker Lake 50K Ultra Trail RunUnited States | 50km | 5:17:00 h | 9.464 | 13/115 |
| 2010-11-06 | Ron Herzog 50KUnited States | 50km | 5:23:25 h | 9.276 | 5/35 |
| 2011-01-08 | Bridle Trails Winter Running FestivalUnited States | 50km | 4:41:53 h | 10.643 | 12/46 |
| 2011-01-15 | 34mi | 6:32:00 h | 8.375 | 13/43 | |
| 2011-02-05 | 50km | 6:26:35 h | 7.760 | 35/129 | |
| 2011-04-30 | 50mi | 9:00:18 h | 8.936 | 18/82 | |
| 2011-05-14 | 12h | 114.770 km | 9.564 | 2/68 | |
| 2011-06-04 | 50mi | 8:13:32 h | 9.783 | 2/53 | |
| 2011-06-11 | 28.8mi | 6:00:00 h | 7.725 | 47/53 | |
| 2011-07-30 | 50mi | 9:20:42 h | 8.611 | 50/244 | |
| 2011-08-27 | 100mi | 23:01:20 h | 6.990 | 11/106 | |
| 2012-01-28 | Bridle Trails Winter Running FestivalUnited States | 50km | 4:47:35 h | 10.432 | 9/46 |
| 2012-02-18 | 50km | 4:02:14 h | 12.385 | 2/24 | |
| 2012-03-17 | 24h | 182.258 km | 7.594 | 1/65 | |
| 2012-04-12 | Squak Mountain 50 Km Trail RunUnited States | 50km | 5:54:32 h | 8.462 | 4/27 |
| 2012-04-28 | 50mi | 8:28:27 h | 9.496 | 13/83 | |
| 2012-05-12 | 50km | 5:46:03 h | 8.669 | 5/48 | |
| 2012-05-19 | 12h | 120.564 km | 10.047 | 3/60 | |
| 2012-06-02 | 50mi | 7:06:16 h | 11.326 | 2/68 | |
| 2012-06-23 | 100mi | 19:47:10 h | 8.134 | 44/316 | |
| 2012-07-28 | 50mi | 8:39:36 h | 9.292 | 45/275 | |
| 2012-08-11 | 60km | 7:52:28 h | 7.620 | 4/35 | |
| 2012-08-25 | 100mi | 25:56:30 h | 6.204 | 34/98 | |
| 2012-09-08 | Plain 100 Mile Endurance RunUnited States | 100mi | 29:33:00 h | 5.446 | 4/10 |
| 2012-10-06 | 50km | 4:56:45 h | 10.110 | 7/116 | |
| 2012-10-27 | 12h | 87.419 km | 7.285 | 3/20 | |
| 2013-03-16 | 24h | 162.543 km | 6.773 | 4/51 | |
| 2013-04-21 | 50km | 6:39:49 h | 7.503 | 30/94 | |
| 2013-04-27 | 50mi | 8:21:06 h | 9.635 | 14/87 | |
| 2013-05-18 | 12h | 113.611 km | 9.468 | 4/64 | |
| 2013-07-27 | 50mi | 9:19:46 h | 8.625 | 43/286 | |
| 2013-08-24 | 100mi | 24:57:51 h | 6.447 | 31/117 | |
| 2013-10-05 | 100km | 12:07:48 h | 8.244 | 5/30 | |
| 2014-03-15 | Pacific Rim One DayUnited States | 24h | 201.168 km | 8.382 | 1/41 |
| 2014-04-26 | 50mi | 8:28:32 h | 9.494 | 10/76 | |
| 2014-07-26 | 50mi | 8:56:22 h | 9.001 | 32/248 | |
| 2014-08-23 | Cascade Crest Classic 100 MileUnited States | 100mi | 22:20:34 h | 7.203 | 17/105 |
| 2015-01-10 | 50km | 4:17:56 h | 11.631 | 7/50 | |
| 2015-02-14 | Woolley Trail Runs 50kUnited States | 50km | 3:52:10 h | 12.922 | 1/27 |
| 2015-03-21 | Pacific Rim One DayUnited States | 24h | 185.074 km | 7.711 | 1/43 |
| 2015-04-11 | Rock Creek Ramble 100 KmUnited States | 100km | 11:33:43 h | 8.649 | 1/3 |
| 2015-05-21 | Pigtails Challenge 200 MileUnited States | 200mi | 45:09:41 h | 7.127 | 1/5 |
| 2015-07-25 | 50mi | 8:31:07 h | 9.446 | 22/276 | |
| 2015-08-29 | 100mi | 22:20:20 h | 7.204 | 9/99 | |
| 2016-07-23 | 50km | 7:22:00 h | 6.787 | 3/46 | |
| 2016-07-30 | 50mi | 8:31:14 h | 9.444 | 21/262 | |
| 2016-08-27 | 100mi | 23:25:03 h | 6.872 | 16/127 | |
| 2017-01-21 | 50km | 4:58:59 h | 10.034 | 6/47 | |
| 2017-04-29 | 50mi | 8:47:54 h | 9.146 | 4/47 | |
| 2017-07-22 | 50km | 7:18:00 h | 6.849 | 3/57 | |
| 2017-08-05 | 50mi | 8:29:33 h | 9.475 | 11/210 | |
| 2017-08-26 | 100mi | 24:30:50 h | 6.565 | 13/110 | |
| 2018-01-13 | Bridle Trails Winter Running FestivalUnited States | 50km | 5:01:12 h | 9.960 | 14/62 |
| 2018-01-20 | 50km | 5:30:17 h | 9.083 | 18/59 | |
| 2018-07-28 | 50mi | 8:56:50 h | 8.994 | 29/216 | |
| 2018-08-25 | 100mi | 24:39:23 h | 6.527 | 30/147 | |
| 2025-10-18 | 50km | 6:52:32 h | 7.272 | 47/113 | |
| 2026-04-18 | 50mi | 10:21:06 h | 7.773 | 6/18 | |
| 2026-06-13 | 50km | 5:45:54 h | 8.673 | 45/208 | |
| 2026-06-27 | 50km | 8:31:00 h | 5.871 | 20/52 | |
| 2026-07-17 | 100mi | 30:04:00 h | 5.353 | 60/129 |